createdAt,value
2018-02-25T00:00:57.915Z,5.55
2018-02-25T00:03:26.291Z,5.43
2018-02-25T00:05:53.871Z,5.60
2018-02-25T00:08:21.447Z,6.37
2018-02-25T00:10:49.059Z,6.50
2018-02-25T00:13:16.641Z,5.78
2018-02-25T00:15:44.255Z,5.70
2018-02-25T00:18:11.839Z,5.35
2018-02-25T00:20:39.440Z,5.85
2018-02-25T00:23:07.018Z,6.03
2018-02-25T00:25:34.623Z,6.62
2018-02-25T00:28:02.211Z,6.60
2018-02-25T00:30:29.822Z,5.22
2018-02-25T00:32:57.404Z,5.50
2018-02-25T00:35:24.987Z,6.22
2018-02-25T00:37:52.594Z,5.10
2018-02-25T00:40:20.166Z,5.07
2018-02-25T00:42:48.514Z,5.65
2018-02-25T00:45:16.119Z,6.50
2018-02-25T00:47:43.694Z,6.78
2018-02-25T00:50:11.296Z,5.20
2018-02-25T00:52:38.879Z,5.80
2018-02-25T00:55:06.494Z,5.45
2018-02-25T00:57:34.075Z,5.40
2018-02-25T01:00:01.655Z,5.10
2018-02-25T01:02:30.046Z,5.40
2018-02-25T01:04:57.722Z,5.97
2018-02-25T01:07:25.330Z,6.25
2018-02-25T01:09:52.912Z,6.22
2018-02-25T01:12:20.518Z,6.03
2018-02-25T01:14:48.099Z,6.22
2018-02-25T01:17:15.706Z,5.72
2018-02-25T01:19:43.284Z,6.12
2018-02-25T01:22:10.887Z,5.80
2018-02-25T01:24:38.717Z,6.03
2018-02-25T01:27:06.296Z,5.57
2018-02-25T01:29:33.919Z,5.50
2018-02-25T01:32:01.494Z,4.87
2018-02-25T01:34:29.079Z,5.72
2018-02-25T01:36:56.683Z,5.30
2018-02-25T01:39:24.264Z,5.32
2018-02-25T01:41:51.878Z,6.80
2018-02-25T01:44:19.483Z,6.70
2018-02-25T01:46:47.089Z,6.18
2018-02-25T01:49:14.667Z,6.20
2018-02-25T01:51:42.287Z,6.43
2018-02-25T01:54:10.052Z,5.22
2018-02-25T01:56:37.627Z,5.62
2018-02-25T01:59:06.007Z,6.05
2018-02-25T02:01:33.586Z,6.43
2018-02-25T02:04:01.191Z,6.40
2018-02-25T02:06:29.545Z,6.20
2018-02-25T02:08:57.915Z,6.20
2018-02-25T02:11:26.258Z,5.95
2018-02-25T02:13:53.870Z,6.03
2018-02-25T02:16:21.446Z,6.20
2018-02-25T02:18:49.662Z,5.75
2018-02-25T02:21:17.243Z,6.87
2018-02-25T02:23:44.823Z,6.07
2018-02-25T02:26:13.199Z,6.35
2018-02-25T02:28:40.830Z,5.62
2018-02-25T02:31:09.197Z,6.35
2018-02-25T02:33:37.544Z,6.10
2018-02-25T02:36:05.164Z,6.97
2018-02-25T02:38:32.743Z,6.47
2018-02-25T02:41:00.924Z,6.78
2018-02-25T02:43:28.503Z,6.18
2018-02-25T02:45:56.118Z,6.82
2018-02-25T02:48:23.699Z,6.55
2018-02-25T02:50:51.319Z,7.05
2018-02-25T02:53:18.900Z,7.30
2018-02-25T02:55:46.474Z,6.75
2018-02-25T02:58:14.099Z,7.35
2018-02-25T03:00:41.679Z,7.10
2018-02-25T03:03:10.028Z,6.62
2018-02-25T03:05:37.636Z,7.15
2018-02-25T03:08:05.223Z,7.80
2018-02-25T03:10:33.595Z,7.45
2018-02-25T03:13:01.963Z,7.32
2018-02-25T03:15:30.334Z,7.95
2018-02-25T03:17:58.691Z,7.65
2018-02-25T03:20:27.066Z,8.00
2018-02-25T03:22:54.642Z,8.02
2018-02-25T03:25:22.225Z,7.32
2018-02-25T03:27:49.835Z,7.50
2018-02-25T03:30:17.496Z,7.32
2018-02-25T03:32:45.128Z,7.45
2018-02-25T03:35:12.711Z,8.20
2018-02-25T03:37:40.302Z,8.30
2018-02-25T03:40:07.923Z,8.65
2018-02-25T03:42:35.499Z,8.07
2018-02-25T03:45:03.170Z,9.13
2018-02-25T03:47:30.750Z,8.77
2018-02-25T03:49:58.354Z,8.77
2018-02-25T03:52:25.943Z,9.20
2018-02-25T03:54:53.522Z,9.23
2018-02-25T03:57:21.137Z,8.45
2018-02-25T03:59:49.487Z,8.75
2018-02-25T04:02:17.070Z,8.93
2018-02-25T04:04:44.686Z,8.80
2018-02-25T04:07:12.270Z,9.25
2018-02-25T04:09:39.858Z,9.68
2018-02-25T04:12:07.482Z,10.10
2018-02-25T04:14:35.068Z,9.02
2018-02-25T04:17:02.659Z,9.50
2018-02-25T04:19:30.299Z,9.68
2018-02-25T04:21:57.946Z,9.52
2018-02-25T04:24:25.546Z,9.50
2018-02-25T04:26:53.123Z,9.77
2018-02-25T04:29:20.731Z,9.77
2018-02-25T04:31:48.310Z,9.68
2018-02-25T04:34:16.666Z,9.50
2018-02-25T04:36:45.043Z,9.90
2018-02-25T04:39:12.632Z,10.82
2018-02-25T04:41:40.210Z,9.27
2018-02-25T04:44:07.815Z,9.93
2018-02-25T04:46:35.393Z,9.38
2018-02-25T04:49:03.070Z,9.43
2018-02-25T04:51:31.407Z,10.07
2018-02-25T04:53:59.021Z,9.00
2018-02-25T04:56:26.607Z,9.95
2018-02-25T04:58:54.211Z,9.90
2018-02-25T05:01:21.794Z,8.95
2018-02-25T05:03:49.403Z,9.45
2018-02-25T05:06:16.986Z,10.07
2018-02-25T05:08:44.597Z,10.13
2018-02-25T05:11:12.183Z,10.68
2018-02-25T05:13:40.590Z,10.45
2018-02-25T05:16:08.175Z,9.80
2018-02-25T05:18:35.787Z,9.63
2018-02-25T05:21:03.376Z,10.48
2018-02-25T05:23:30.964Z,9.60
2018-02-25T05:25:58.586Z,10.30
2018-02-25T05:28:26.935Z,9.95
2018-02-25T05:30:54.523Z,10.68
2018-02-25T05:33:22.122Z,9.95
2018-02-25T05:35:49.731Z,11.07
2018-02-25T05:38:17.317Z,11.07
2018-02-25T05:40:44.922Z,10.75
2018-02-25T05:43:12.511Z,11.00
2018-02-25T05:45:40.167Z,10.05
2018-02-25T05:48:07.782Z,9.95
2018-02-25T05:50:35.371Z,10.15
2018-02-25T05:53:02.959Z,10.45
2018-02-25T05:55:30.580Z,9.48
2018-02-25T05:57:58.163Z,11.30
2018-02-25T06:00:25.746Z,9.85
2018-02-25T06:02:54.124Z,10.35
2018-02-25T06:05:21.734Z,10.10
2018-02-25T06:07:49.348Z,10.52
2018-02-25T06:10:16.966Z,10.38
2018-02-25T06:12:44.551Z,10.95
2018-02-25T06:15:12.158Z,10.73
2018-02-25T06:17:39.780Z,10.00
2018-02-25T06:20:07.370Z,10.80
2018-02-25T06:22:34.987Z,11.03
2018-02-25T06:25:03.502Z,10.40
2018-02-25T06:27:31.186Z,11.10
2018-02-25T06:29:58.771Z,10.45
2018-02-25T06:32:26.354Z,9.80
2018-02-25T06:34:53.967Z,11.02
2018-02-25T06:37:21.562Z,10.30
2018-02-25T06:39:49.187Z,9.43
2018-02-25T06:42:16.771Z,9.90
2018-02-25T06:44:45.194Z,9.35
2018-02-25T06:47:12.806Z,10.35
2018-02-25T06:49:40.387Z,9.55
2018-02-25T06:52:08.008Z,9.00
2018-02-25T06:54:35.591Z,9.82
2018-02-25T06:57:03.168Z,9.90
2018-02-25T06:59:31.546Z,9.60
2018-02-25T07:01:59.132Z,9.30
2018-02-25T07:04:26.739Z,9.52
2018-02-25T07:06:55.082Z,9.15
2018-02-25T07:09:23.468Z,9.60
2018-02-25T07:11:51.055Z,9.90
2018-02-25T07:14:18.639Z,9.32
2018-02-25T07:16:47.022Z,9.55
2018-02-25T07:19:14.654Z,9.70
2018-02-25T07:21:43.011Z,8.93
2018-02-25T07:24:11.362Z,9.13
2018-02-25T07:26:38.971Z,8.15
2018-02-25T07:29:06.559Z,9.15
2018-02-25T07:31:34.939Z,8.73
2018-02-25T07:34:02.522Z,9.57
2018-02-25T07:36:30.160Z,9.70
2018-02-25T07:38:57.762Z,9.63
2018-02-25T07:41:25.347Z,8.68
2018-02-25T07:43:52.970Z,8.50
2018-02-25T07:46:20.566Z,9.15
2018-02-25T07:48:48.171Z,8.80
2018-02-25T07:51:15.755Z,9.70
2018-02-25T07:53:43.375Z,8.13
2018-02-25T07:56:10.966Z,9.48
2018-02-25T07:58:38.638Z,9.02
2018-02-25T08:01:06.998Z,9.60
2018-02-25T08:03:35.414Z,8.25
2018-02-25T08:06:03.018Z,9.50
2018-02-25T08:08:31.451Z,8.70
2018-02-25T08:10:59.859Z,10.15
2018-02-25T08:13:27.516Z,8.95
2018-02-25T08:15:55.194Z,9.02
2018-02-25T08:18:22.782Z,9.70
2018-02-25T08:20:51.171Z,9.50
2018-02-25T08:23:18.759Z,9.50
2018-02-25T08:25:46.343Z,9.30
2018-02-25T08:28:14.718Z,8.88
2018-02-25T08:30:42.323Z,8.18
2018-02-25T08:33:09.948Z,8.32
2018-02-25T08:35:37.527Z,8.60
2018-02-25T08:38:05.115Z,9.73
2018-02-25T08:40:32.727Z,9.55
2018-02-25T08:43:00.307Z,8.25
2018-02-25T08:45:27.918Z,9.27
2018-02-25T08:47:55.508Z,9.43
2018-02-25T08:50:23.143Z,9.45
2018-02-25T08:52:50.728Z,9.45
2018-02-25T08:55:18.309Z,8.60
2018-02-25T08:57:46.687Z,9.18
2018-02-25T09:00:14.276Z,8.60
2018-02-25T09:02:41.894Z,8.27
2018-02-25T09:05:09.478Z,8.73
2018-02-25T09:07:37.225Z,9.63
2018-02-25T09:10:05.633Z,8.77
2018-02-25T09:12:34.014Z,8.73
2018-02-25T09:15:01.643Z,7.70
2018-02-25T09:17:29.233Z,9.40
2018-02-25T09:19:57.184Z,8.93
2018-02-25T09:22:24.770Z,8.95
2018-02-25T09:24:52.351Z,7.80
2018-02-25T09:27:19.965Z,8.68
2018-02-25T09:29:47.614Z,9.30
2018-02-25T09:32:15.218Z,8.30
2018-02-25T09:34:42.840Z,8.25
2018-02-25T09:37:10.447Z,7.87
2018-02-25T09:39:38.063Z,8.02
2018-02-25T09:42:05.647Z,8.25
2018-02-25T09:44:34.001Z,7.87
2018-02-25T09:47:01.900Z,7.87
2018-02-25T09:49:29.487Z,7.43
2018-02-25T09:51:57.070Z,8.50
2018-02-25T09:54:25.466Z,7.30
2018-02-25T09:56:53.049Z,7.60
2018-02-25T09:59:20.658Z,8.10
2018-02-25T10:01:48.243Z,7.50
2018-02-25T10:04:15.850Z,7.43
2018-02-25T10:06:43.522Z,7.93
2018-02-25T10:09:11.107Z,7.65
2018-02-25T10:11:39.492Z,8.43
2018-02-25T10:14:07.092Z,7.95
2018-02-25T10:16:34.687Z,7.18
2018-02-25T10:19:02.296Z,7.60
2018-02-25T10:21:29.919Z,8.40
2018-02-25T10:23:57.543Z,8.55
2018-02-25T10:26:25.127Z,7.65
2018-02-25T10:28:52.714Z,7.65
2018-02-25T10:31:20.326Z,7.72
2018-02-25T10:33:48.678Z,7.57
2018-02-25T10:36:16.287Z,8.07
2018-02-25T10:38:43.874Z,7.78
2018-02-25T10:41:11.506Z,8.43
2018-02-25T10:43:39.119Z,7.82
2018-02-25T10:46:06.738Z,8.25
2018-02-25T10:48:35.123Z,7.93
2018-02-25T10:51:02.711Z,8.00
2018-02-25T10:53:30.318Z,7.25
2018-02-25T10:55:57.921Z,7.18
2018-02-25T10:58:25.498Z,7.85
2018-02-25T11:00:58.850Z,7.72
2018-02-25T11:03:27.211Z,8.02
2018-02-25T11:05:54.818Z,7.80
2018-02-25T11:08:22.403Z,7.62
2018-02-25T11:10:49.995Z,7.35
2018-02-25T11:13:17.618Z,7.53
2018-02-25T11:15:45.210Z,7.90
2018-02-25T11:18:12.796Z,7.62
2018-02-25T11:20:41.194Z,8.23
2018-02-25T11:23:08.803Z,8.10
2018-02-25T11:25:37.151Z,8.30
2018-02-25T11:28:04.763Z,8.02
2018-02-25T11:30:32.369Z,8.57
2018-02-25T11:33:00.715Z,8.25
2018-02-25T11:35:29.090Z,7.65
2018-02-25T11:37:57.455Z,8.80
2018-02-25T11:40:25.862Z,8.02
2018-02-25T11:42:53.442Z,7.05
2018-02-25T11:45:21.043Z,7.20
2018-02-25T11:47:48.622Z,7.62
2018-02-25T11:50:16.388Z,7.30
2018-02-25T11:52:43.967Z,8.02
2018-02-25T11:55:11.575Z,7.53
2018-02-25T11:57:39.164Z,7.87
2018-02-25T12:00:06.770Z,7.90
2018-02-25T12:02:34.379Z,7.90
2018-02-25T12:05:01.975Z,7.05
2018-02-25T12:07:30.391Z,7.97
2018-02-25T12:09:57.977Z,8.15
2018-02-25T12:12:25.599Z,8.02
2018-02-25T12:14:59.271Z,6.87
2018-02-25T12:17:20.797Z,8.15
2018-02-25T12:19:48.402Z,8.40
2018-02-25T12:22:15.983Z,7.05
2018-02-25T12:24:43.616Z,7.72
2018-02-25T12:27:11.198Z,7.10
2018-02-25T12:29:38.783Z,7.70
2018-02-25T12:32:06.420Z,7.85
2018-02-25T12:34:34.023Z,7.80
2018-02-25T12:37:01.611Z,6.32
2018-02-25T12:39:29.219Z,7.97
2018-02-25T12:41:56.823Z,7.05
2018-02-25T12:44:24.403Z,7.50
2018-02-25T12:46:52.022Z,7.80
2018-02-25T12:49:19.602Z,7.30
2018-02-25T12:51:47.183Z,8.15
2018-02-25T12:54:15.558Z,7.40
2018-02-25T12:56:43.156Z,7.43
2018-02-25T12:59:10.770Z,7.43
2018-02-25T13:01:38.383Z,7.15
2018-02-25T13:04:06.755Z,6.55
2018-02-25T13:06:34.332Z,6.50
2018-02-25T13:09:02.091Z,6.85
2018-02-25T13:11:29.691Z,7.10
2018-02-25T13:13:58.038Z,6.35
2018-02-25T13:16:26.416Z,6.00
2018-02-25T13:18:54.027Z,7.22
2018-02-25T13:21:21.634Z,6.62
2018-02-25T13:23:49.227Z,6.87
2018-02-25T13:26:16.842Z,6.78
2018-02-25T13:28:44.419Z,6.93
2018-02-25T13:31:12.252Z,6.18
2018-02-25T13:33:39.836Z,6.85
2018-02-25T13:36:08.188Z,6.65
2018-02-25T13:38:36.570Z,6.90
2018-02-25T13:41:04.151Z,6.90
2018-02-25T13:43:31.726Z,6.90
2018-02-25T13:45:59.328Z,6.82
2018-02-25T13:48:26.928Z,7.00
2018-02-25T13:50:54.547Z,6.70
2018-02-25T13:53:22.122Z,7.10
2018-02-25T13:55:49.740Z,6.62
2018-02-25T13:58:17.314Z,6.95
2018-02-25T14:00:44.887Z,6.68
2018-02-25T14:03:12.487Z,6.75
2018-02-25T14:05:40.067Z,6.85
2018-02-25T14:08:08.456Z,6.03
2018-02-25T14:10:36.247Z,6.70
2018-02-25T14:13:03.834Z,6.65
2018-02-25T14:15:31.478Z,5.82
2018-02-25T14:17:59.814Z,6.82
2018-02-25T14:20:28.180Z,5.47
2018-02-25T14:22:55.779Z,5.30
2018-02-25T14:25:23.355Z,6.00
2018-02-25T14:27:50.959Z,6.12
2018-02-25T14:30:18.535Z,6.05
2018-02-25T14:32:46.134Z,5.97
2018-02-25T14:35:14.507Z,6.20
2018-02-25T14:37:42.083Z,6.12
2018-02-25T14:40:09.679Z,6.30
2018-02-25T14:42:37.289Z,5.70
2018-02-25T14:45:04.926Z,5.60
2018-02-25T14:47:32.523Z,6.80
2018-02-25T14:50:00.887Z,6.22
2018-02-25T14:52:29.292Z,5.78
2018-02-25T14:54:56.867Z,6.28
2018-02-25T14:57:24.444Z,6.35
2018-02-25T14:59:52.826Z,5.70
2018-02-25T15:02:20.399Z,6.22
2018-02-25T15:04:48.018Z,7.25
2018-02-25T15:07:15.627Z,6.87
2018-02-25T15:09:43.202Z,6.05
2018-02-25T15:12:10.803Z,6.75
2018-02-25T15:14:38.399Z,6.05
2018-02-25T15:17:05.971Z,6.80
2018-02-25T15:19:33.587Z,6.65
2018-02-25T15:22:01.165Z,6.37
2018-02-25T15:24:28.744Z,6.68
2018-02-25T15:26:56.363Z,6.85
2018-02-25T15:29:23.939Z,6.97
2018-02-25T15:31:51.522Z,7.75
2018-02-25T15:34:19.152Z,6.95
2018-02-25T15:36:47.499Z,7.20
2018-02-25T15:39:15.117Z,7.28
2018-02-25T15:41:42.727Z,7.45
2018-02-25T15:44:10.320Z,6.82
2018-02-25T15:46:37.926Z,7.55
2018-02-25T15:49:05.512Z,7.85
2018-02-25T15:51:33.146Z,8.07
2018-02-25T15:54:01.618Z,7.00
2018-02-25T15:56:29.247Z,7.18
2018-02-25T15:58:56.828Z,7.57
2018-02-25T16:01:24.412Z,7.12
2018-02-25T16:03:52.035Z,6.80
2018-02-25T16:06:19.615Z,7.90
2018-02-25T16:08:47.245Z,7.05
2018-02-25T16:11:14.823Z,7.35
2018-02-25T16:13:42.408Z,7.60
2018-02-25T16:16:10.011Z,7.20
2018-02-25T16:18:37.631Z,7.45
2018-02-25T16:21:05.206Z,7.87
2018-02-25T16:23:32.797Z,7.80
2018-02-25T16:26:00.436Z,7.82
2018-02-25T16:28:28.030Z,7.50
2018-02-25T16:30:55.639Z,8.60
2018-02-25T16:33:24.009Z,8.32
2018-02-25T16:35:52.408Z,7.40
2018-02-25T16:38:19.982Z,7.10
2018-02-25T16:40:47.582Z,7.90
2018-02-25T16:43:15.190Z,8.00
2018-02-25T16:45:42.783Z,7.93
2018-02-25T16:48:10.406Z,7.25
2018-02-25T16:50:38.757Z,6.85
2018-02-25T16:53:06.331Z,6.95
2018-02-25T16:55:33.947Z,7.40
2018-02-25T16:58:01.534Z,7.37
2018-02-25T17:00:29.198Z,7.40
2018-02-25T17:02:56.783Z,7.80
2018-02-25T17:05:24.391Z,7.30
2018-02-25T17:07:52.006Z,8.30
2018-02-25T17:10:19.624Z,7.62
2018-02-25T17:12:48.019Z,6.40
2018-02-25T17:15:15.633Z,6.85
2018-02-25T17:17:43.249Z,8.68
2018-02-25T17:20:10.904Z,7.55
2018-02-25T17:22:38.862Z,7.30
2018-02-25T17:25:06.518Z,7.35
2018-02-25T17:27:34.140Z,8.55
2018-02-25T17:30:01.727Z,7.93
2018-02-25T17:32:30.085Z,8.20
2018-02-25T17:34:58.479Z,8.48
2018-02-25T17:37:26.067Z,8.60
2018-02-25T17:39:53.814Z,9.05
2018-02-25T17:42:21.394Z,8.23
2018-02-25T17:44:49.766Z,8.02
2018-02-25T17:47:18.131Z,8.15
2018-02-25T17:49:46.487Z,7.95
2018-02-25T17:52:14.859Z,8.27
2018-02-25T17:54:42.486Z,8.10
2018-02-25T17:57:10.070Z,8.35
2018-02-25T17:59:37.659Z,8.35
2018-02-25T18:02:05.280Z,10.27
2018-02-25T18:04:32.864Z,9.00
2018-02-25T18:07:00.511Z,8.68
2018-02-25T18:09:28.106Z,8.75
2018-02-25T18:11:55.726Z,8.27
2018-02-25T18:14:24.070Z,9.23
2018-02-25T18:16:51.683Z,8.45
2018-02-25T18:19:19.286Z,8.40
2018-02-25T18:21:47.651Z,9.00
2018-02-25T18:24:15.259Z,8.93
2018-02-25T18:26:42.847Z,8.98
2018-02-25T18:29:10.478Z,9.13
2018-02-25T18:31:38.831Z,10.50
2018-02-25T18:34:06.967Z,8.52
2018-02-25T18:36:35.426Z,7.47
2018-02-25T18:39:03.297Z,9.45
2018-02-25T18:41:31.711Z,8.35
2018-02-25T18:43:59.292Z,8.98
2018-02-25T18:46:26.902Z,9.90
2018-02-25T18:48:54.495Z,9.40
2018-02-25T18:51:22.074Z,8.50
2018-02-25T18:53:50.470Z,8.15
2018-02-25T18:56:18.054Z,9.32
2018-02-25T18:58:45.630Z,9.07
2018-02-25T19:01:14.007Z,8.00
2018-02-25T19:03:41.598Z,8.88
2018-02-25T19:06:09.206Z,9.20
2018-02-25T19:08:36.791Z,11.38
2018-02-25T19:11:04.383Z,13.15
2018-02-25T19:13:32.764Z,11.85
2018-02-25T19:16:00.379Z,11.50
2018-02-25T19:18:28.731Z,9.80
2018-02-25T19:20:56.458Z,9.52
2018-02-25T19:23:24.071Z,9.18
2018-02-25T19:25:51.675Z,10.07
2018-02-25T19:28:19.263Z,8.10
2018-02-25T19:30:46.878Z,7.75
2018-02-25T19:33:15.271Z,8.32
2018-02-25T19:35:48.580Z,7.35
2018-02-25T19:38:21.819Z,8.18
2018-02-25T19:40:55.040Z,7.50
2018-02-25T19:43:22.659Z,7.93
2018-02-25T19:45:50.287Z,8.05
2018-02-25T19:48:17.894Z,8.50
2018-02-25T19:50:45.487Z,8.57
2018-02-25T19:53:13.102Z,8.60
2018-02-25T19:55:41.452Z,7.50
2018-02-25T19:58:09.054Z,6.78
2018-02-25T20:00:36.643Z,6.87
2018-02-25T20:03:04.381Z,6.25
2018-02-25T20:05:31.973Z,6.82
2018-02-25T20:07:59.551Z,6.18
2018-02-25T20:10:27.232Z,5.65
2018-02-25T20:12:54.819Z,5.87
2018-02-25T20:15:22.403Z,6.07
2018-02-25T20:17:50.156Z,6.35
2018-02-25T20:20:17.785Z,5.68
2018-02-25T20:22:45.416Z,5.95
2018-02-25T20:25:13.007Z,7.22
2018-02-25T20:27:40.763Z,5.72
2018-02-25T20:30:08.418Z,6.15
2018-02-25T20:32:36.012Z,5.90
2018-02-25T20:35:03.616Z,6.35
2018-02-25T20:37:31.252Z,5.87
2018-02-25T20:39:58.844Z,6.78
2018-02-25T20:42:26.490Z,6.10
2018-02-25T20:44:54.080Z,6.05
2018-02-25T20:47:21.663Z,7.37
2018-02-25T20:49:49.295Z,6.95
2018-02-25T20:52:17.682Z,6.80
2018-02-25T20:54:45.308Z,6.28
2018-02-25T20:57:13.726Z,5.90
2018-02-25T20:59:41.310Z,6.20
2018-02-25T21:02:08.895Z,5.97
2018-02-25T21:04:36.514Z,6.28
2018-02-25T21:07:04.947Z,6.20
2018-02-25T21:09:32.604Z,6.32
2018-02-25T21:12:06.155Z,5.90
2018-02-25T21:14:34.005Z,6.25
2018-02-25T21:17:01.596Z,6.00
2018-02-25T21:19:29.175Z,5.80
2018-02-25T21:21:56.794Z,5.37
2018-02-25T21:24:25.171Z,6.47
2018-02-25T21:26:52.850Z,6.80
2018-02-25T21:29:20.430Z,6.32
2018-02-25T21:31:48.150Z,5.65
2018-02-25T21:34:15.735Z,6.10
2018-02-25T21:36:43.319Z,6.95
2018-02-25T21:39:11.222Z,5.30
2018-02-25T21:41:38.807Z,5.82
2018-02-25T21:44:06.387Z,6.03
2018-02-25T21:46:34.027Z,6.65
2018-02-25T21:49:01.616Z,6.00
2018-02-25T21:51:29.200Z,6.30
2018-02-25T21:53:56.887Z,5.72
2018-02-25T21:56:30.223Z,6.78
2018-02-25T21:59:03.618Z,6.10
2018-02-25T22:01:36.828Z,6.43
2018-02-25T22:04:04.436Z,5.65
2018-02-25T22:06:32.061Z,6.50
2018-02-25T22:09:00.453Z,7.03
2018-02-25T22:11:28.042Z,6.25
2018-02-25T22:13:55.734Z,6.68
2018-02-25T22:16:23.428Z,6.22
2018-02-25T22:18:51.290Z,5.45
2018-02-25T22:21:19.131Z,6.80
2018-02-25T22:23:46.750Z,6.47
2018-02-25T22:26:14.451Z,7.12
2018-02-25T22:28:42.083Z,7.00
2018-02-25T22:31:09.668Z,7.25
2018-02-25T22:33:37.291Z,6.50
2018-02-25T22:36:04.870Z,7.40
2018-02-25T22:38:32.452Z,7.50
2018-02-25T22:41:00.069Z,6.55
2018-02-25T22:43:27.656Z,6.25
2018-02-25T22:45:55.235Z,6.32
2018-02-25T22:48:23.611Z,7.65
2018-02-25T22:50:51.219Z,6.05
2018-02-25T22:53:18.806Z,6.57
2018-02-25T22:55:46.431Z,6.78
2018-02-25T22:58:14.776Z,6.47
2018-02-25T23:00:42.354Z,6.22
2018-02-25T23:03:09.963Z,6.43
2018-02-25T23:05:37.550Z,6.82
2018-02-25T23:08:05.158Z,6.10
2018-02-25T23:10:32.741Z,7.05
2018-02-25T23:13:00.328Z,6.70
2018-02-25T23:15:27.938Z,6.40
2018-02-25T23:17:55.532Z,6.75
2018-02-25T23:20:23.142Z,6.03
2018-02-25T23:22:50.718Z,6.53
2018-02-25T23:25:18.334Z,7.03
2018-02-25T23:27:45.954Z,6.80
2018-02-25T23:30:13.566Z,6.50
2018-02-25T23:32:41.151Z,6.50
2018-02-25T23:35:08.769Z,6.93
2018-02-25T23:37:36.357Z,6.10
2018-02-25T23:40:03.986Z,6.90
2018-02-25T23:42:32.331Z,6.28
2018-02-25T23:44:59.918Z,7.22
2018-02-25T23:47:27.522Z,8.15
2018-02-25T23:49:55.103Z,7.05
2018-02-25T23:52:22.731Z,6.60
2018-02-25T23:54:51.079Z,6.80
2018-02-25T23:57:18.687Z,7.37
2018-02-25T23:59:46.270Z,7.50
